createdAt,value
2022-10-08T00:03:01.768Z,3.20
2022-10-08T00:08:21.850Z,3.63
2022-10-08T00:13:42.154Z,3.30
2022-10-08T00:19:02.373Z,3.33
2022-10-08T00:24:22.889Z,3.27
2022-10-08T00:29:42.939Z,3.80
2022-10-08T00:35:02.978Z,3.30
2022-10-08T00:40:23.018Z,3.07
2022-10-08T00:45:43.176Z,3.53
2022-10-08T00:51:03.205Z,3.30
2022-10-08T00:56:23.319Z,3.20
2022-10-08T01:01:43.529Z,3.20
2022-10-08T01:07:03.723Z,2.90
2022-10-08T01:12:23.811Z,3.47
2022-10-08T01:17:44.038Z,3.30
2022-10-08T01:23:04.099Z,2.83
2022-10-08T01:28:24.427Z,3.10
2022-10-08T01:33:44.455Z,3.20
2022-10-08T01:39:04.671Z,3.10
2022-10-08T01:44:24.752Z,2.83
2022-10-08T01:49:44.830Z,3.27
2022-10-08T01:55:04.891Z,3.20
2022-10-08T02:00:25.037Z,2.93
2022-10-08T02:05:45.057Z,2.50
2022-10-08T02:11:05.350Z,2.93
2022-10-08T02:16:25.494Z,2.67
2022-10-08T02:21:45.692Z,3.00
2022-10-08T02:27:05.753Z,2.90
2022-10-08T02:32:25.968Z,2.50
2022-10-08T02:37:46.114Z,2.53
2022-10-08T02:43:06.387Z,2.37
2022-10-08T02:48:26.500Z,2.30
2022-10-08T02:53:46.654Z,2.70
2022-10-08T02:59:06.818Z,3.07
2022-10-08T03:04:27.105Z,2.80
2022-10-08T03:09:47.203Z,2.43
2022-10-08T03:15:07.315Z,2.20
2022-10-08T03:20:27.377Z,2.40
2022-10-08T03:25:47.604Z,2.30
2022-10-08T03:31:07.846Z,2.37
2022-10-08T03:36:27.950Z,3.10
2022-10-08T03:41:48.147Z,2.30
2022-10-08T03:47:08.485Z,2.20
2022-10-08T03:52:28.595Z,2.90
2022-10-08T03:57:48.774Z,2.53
2022-10-08T04:03:08.869Z,2.60
2022-10-08T04:08:28.971Z,2.37
2022-10-08T04:13:49.108Z,2.63
2022-10-08T04:19:09.275Z,2.70
2022-10-08T04:24:29.370Z,3.20
2022-10-08T04:29:49.478Z,2.50
2022-10-08T04:35:09.855Z,2.67
2022-10-08T04:40:29.839Z,2.33
2022-10-08T04:45:50.050Z,2.73
2022-10-08T04:51:10.943Z,2.70
2022-10-08T04:56:30.858Z,2.97
2022-10-08T05:01:51.118Z,2.20
2022-10-08T05:07:11.224Z,2.00
2022-10-08T05:12:31.256Z,2.40
2022-10-08T05:17:51.388Z,2.47
2022-10-08T05:23:11.447Z,2.30
2022-10-08T05:28:31.658Z,2.43
2022-10-08T05:33:51.703Z,2.90
2022-10-08T05:39:11.806Z,2.23
2022-10-08T05:44:36.105Z,2.17
2022-10-08T05:49:57.447Z,2.47
2022-10-08T05:55:17.618Z,2.90
2022-10-08T06:00:37.749Z,2.33
2022-10-08T06:05:57.954Z,2.50
2022-10-08T06:11:18.674Z,2.30
2022-10-08T06:16:38.833Z,2.07
2022-10-08T06:21:58.798Z,2.50
2022-10-08T06:27:18.980Z,2.30
2022-10-08T06:32:39.096Z,2.50
2022-10-08T06:37:59.302Z,2.77
2022-10-08T06:43:19.439Z,2.30
2022-10-08T06:48:39.726Z,2.33
2022-10-08T06:54:06.655Z,2.00
2022-10-08T06:59:27.579Z,2.13
2022-10-08T07:04:47.649Z,2.13
2022-10-08T07:10:07.785Z,2.50
2022-10-08T07:15:28.087Z,2.00
2022-10-08T07:20:48.195Z,2.37
2022-10-08T07:26:08.424Z,2.47
2022-10-08T07:31:28.592Z,2.37
2022-10-08T07:36:48.645Z,2.60
2022-10-08T07:42:08.876Z,2.10
2022-10-08T07:47:29.047Z,2.37
2022-10-08T07:52:49.669Z,2.20
2022-10-08T07:58:09.698Z,2.30
2022-10-08T08:03:29.903Z,2.03
2022-10-08T08:08:49.925Z,2.93
2022-10-08T08:14:10.020Z,2.70
2022-10-08T08:19:30.285Z,3.40
2022-10-08T08:24:50.379Z,3.10
2022-10-08T08:30:10.401Z,3.00
2022-10-08T08:35:30.574Z,3.53
2022-10-08T08:40:50.789Z,3.10
2022-10-08T08:46:11.004Z,3.23
2022-10-08T08:51:30.975Z,3.90
2022-10-08T08:56:51.096Z,3.77
2022-10-08T09:02:11.164Z,3.30
2022-10-08T09:07:31.356Z,3.47
2022-10-08T09:12:51.494Z,3.30
2022-10-08T09:18:11.766Z,3.93
2022-10-08T09:23:31.849Z,3.97
2022-10-08T09:28:52.083Z,3.30
2022-10-08T09:34:12.213Z,3.30
2022-10-08T09:39:32.362Z,3.43
2022-10-08T09:44:52.328Z,3.60
2022-10-08T09:50:12.532Z,3.30
2022-10-08T09:55:32.540Z,3.57
2022-10-08T10:00:52.833Z,3.57
2022-10-08T10:06:13.854Z,4.00
2022-10-08T10:11:35.664Z,2.80
2022-10-08T10:16:55.983Z,2.87
2022-10-08T10:22:19.120Z,2.90
2022-10-08T10:27:39.307Z,3.07
2022-10-08T10:32:59.453Z,3.10
2022-10-08T10:38:19.659Z,2.60
2022-10-08T10:43:40.722Z,3.00
2022-10-08T10:49:01.043Z,3.20
2022-10-08T10:54:21.169Z,3.47
2022-10-08T10:59:41.382Z,3.13
2022-10-08T11:05:04.929Z,3.17
2022-10-08T11:10:25.148Z,3.10
2022-10-08T11:15:45.334Z,3.13
2022-10-08T11:21:05.540Z,3.10
2022-10-08T11:26:25.583Z,2.80
2022-10-08T11:31:45.812Z,3.00
2022-10-08T11:37:05.942Z,2.77
2022-10-08T11:42:26.068Z,3.70
2022-10-08T11:47:46.256Z,2.93
2022-10-08T11:53:06.432Z,3.20
2022-10-08T11:58:26.575Z,2.70
2022-10-08T12:03:46.824Z,3.10
2022-10-08T12:09:06.900Z,3.00
2022-10-08T12:14:27.145Z,2.33
2022-10-08T12:19:47.303Z,2.53
2022-10-08T12:25:07.528Z,2.80
2022-10-08T12:30:27.564Z,2.30
2022-10-08T12:35:47.778Z,2.37
2022-10-08T12:41:07.900Z,2.90
2022-10-08T12:46:28.327Z,2.30
2022-10-08T12:51:48.371Z,2.30
2022-10-08T12:57:08.469Z,2.60
2022-10-08T13:02:28.470Z,1.93
2022-10-08T13:07:48.948Z,2.40
2022-10-08T13:13:09.182Z,2.10
2022-10-08T13:18:29.363Z,2.20
2022-10-08T13:23:49.474Z,1.90
2022-10-08T13:29:09.664Z,1.90
2022-10-08T13:34:29.702Z,1.87
2022-10-08T13:39:50.000Z,2.40
2022-10-08T13:45:10.250Z,2.00
2022-10-08T13:50:30.408Z,1.57
2022-10-08T13:55:50.631Z,2.13
2022-10-08T14:01:10.906Z,2.20
2022-10-08T14:06:30.951Z,1.60
2022-10-08T14:11:51.170Z,2.60
2022-10-08T14:17:11.201Z,2.10
2022-10-08T14:22:31.356Z,1.80
2022-10-08T14:27:51.656Z,1.67
2022-10-08T14:33:12.219Z,1.90
2022-10-08T14:38:32.345Z,2.70
2022-10-08T14:43:52.656Z,1.80
2022-10-08T14:49:12.749Z,2.00
2022-10-08T14:54:32.915Z,1.80
2022-10-08T14:59:52.954Z,2.20
2022-10-08T15:05:13.059Z,1.70
2022-10-08T15:10:33.182Z,1.70
2022-10-08T15:15:53.159Z,1.80
2022-10-08T15:21:13.486Z,1.67
2022-10-08T15:26:33.621Z,1.50
2022-10-08T15:31:53.893Z,1.77
2022-10-08T15:37:13.969Z,1.70
2022-10-08T15:42:34.118Z,2.00
2022-10-08T15:47:54.271Z,1.90
2022-10-08T15:53:14.450Z,1.80
2022-10-08T15:58:50.023Z,1.60
2022-10-08T16:04:10.796Z,1.47
2022-10-08T16:09:30.876Z,1.40
2022-10-08T16:14:50.972Z,1.77
2022-10-08T16:20:11.078Z,2.20
2022-10-08T16:25:31.292Z,1.47
2022-10-08T16:30:51.274Z,1.67
2022-10-08T16:36:11.448Z,1.57
2022-10-08T16:41:31.541Z,1.57
2022-10-08T16:46:51.666Z,1.80
2022-10-08T16:52:11.743Z,1.60
2022-10-08T16:57:32.054Z,1.40
2022-10-08T17:02:52.165Z,1.53
2022-10-08T17:08:12.367Z,1.60
2022-10-08T17:13:32.640Z,1.37
2022-10-08T17:18:52.958Z,1.57
2022-10-08T17:24:13.045Z,1.60
2022-10-08T17:29:33.378Z,1.50
2022-10-08T17:34:53.471Z,1.87
2022-10-08T17:40:13.711Z,1.63
2022-10-08T17:45:33.719Z,1.63
2022-10-08T17:50:54.036Z,1.43
2022-10-08T17:56:14.155Z,1.30
2022-10-08T18:01:34.259Z,2.00
2022-10-08T18:06:54.267Z,1.40
2022-10-08T18:12:14.335Z,1.53
2022-10-08T18:17:34.477Z,1.80
2022-10-08T18:22:54.871Z,1.70
2022-10-08T18:28:15.001Z,1.50
2022-10-08T18:33:35.099Z,1.30
2022-10-08T18:38:55.166Z,1.30
2022-10-08T18:44:15.421Z,1.60
2022-10-08T18:49:35.498Z,1.80
2022-10-08T18:54:55.565Z,1.50
2022-10-08T19:00:15.676Z,1.80
2022-10-08T19:05:35.919Z,1.57
2022-10-08T19:10:56.049Z,1.70
2022-10-08T19:16:16.359Z,1.53
2022-10-08T19:21:36.294Z,1.80
2022-10-08T19:26:58.008Z,1.70
2022-10-08T19:32:18.255Z,1.67
2022-10-08T19:37:38.492Z,1.67
2022-10-08T19:42:58.597Z,1.70
2022-10-08T19:48:18.710Z,2.00
2022-10-08T19:53:38.869Z,2.53
2022-10-08T19:58:59.086Z,1.93
2022-10-08T20:04:19.179Z,2.07
2022-10-08T20:09:41.247Z,2.10
2022-10-08T20:15:01.380Z,2.13
2022-10-08T20:20:32.986Z,2.30
2022-10-08T20:25:53.361Z,2.50
2022-10-08T20:31:13.539Z,2.47
2022-10-08T20:36:33.599Z,2.47
2022-10-08T20:41:53.692Z,2.40
2022-10-08T20:47:13.760Z,2.30
2022-10-08T20:52:33.786Z,2.43
2022-10-08T20:57:54.102Z,2.70
2022-10-08T21:03:14.348Z,2.43
2022-10-08T21:08:34.676Z,2.50
2022-10-08T21:13:55.072Z,2.97
2022-10-08T21:19:15.309Z,2.17
2022-10-08T21:24:35.448Z,2.73
2022-10-08T21:29:55.811Z,2.53
2022-10-08T21:35:16.003Z,2.30
2022-10-08T21:40:36.037Z,2.83
2022-10-08T21:45:56.176Z,2.50
2022-10-08T21:51:16.416Z,3.00
2022-10-08T21:56:36.443Z,3.03
2022-10-08T22:01:56.658Z,3.27
2022-10-08T22:07:16.790Z,2.90
2022-10-08T22:12:37.037Z,3.00
2022-10-08T22:17:57.171Z,2.33
2022-10-08T22:23:17.377Z,2.90
2022-10-08T22:28:37.585Z,2.97
2022-10-08T22:33:57.787Z,2.47
2022-10-08T22:39:17.869Z,3.10
2022-10-08T22:44:38.033Z,2.50
2022-10-08T22:49:58.183Z,2.67
2022-10-08T22:55:18.389Z,2.53
2022-10-08T23:00:38.484Z,2.90
2022-10-08T23:05:58.782Z,2.20
2022-10-08T23:11:18.804Z,2.43
2022-10-08T23:16:39.194Z,2.87
2022-10-08T23:21:59.281Z,2.77
2022-10-08T23:27:19.537Z,2.10
2022-10-08T23:32:39.596Z,2.63
2022-10-08T23:37:59.883Z,2.70
2022-10-08T23:43:19.929Z,2.10
2022-10-08T23:48:40.150Z,2.50
2022-10-08T23:54:00.379Z,2.60
2022-10-08T23:59:20.536Z,2.60
